createdAt,value
2022-09-27T00:01:09.651Z,95252.38
2022-09-27T00:03:40.527Z,95248.91
2022-09-27T00:06:11.915Z,95247.31
2022-09-27T00:08:40.125Z,95242.23
2022-09-27T00:11:13.851Z,95240.17
2022-09-27T00:13:43.262Z,95225.02
2022-09-27T00:16:11.607Z,95227.59
2022-09-27T00:18:39.810Z,95224.80
2022-09-27T00:21:09.539Z,95224.55
2022-09-27T00:23:38.263Z,95225.80
2022-09-27T00:26:07.624Z,95228.03
2022-09-27T00:28:35.846Z,95227.44
2022-09-27T00:31:04.106Z,95226.98
2022-09-27T00:33:32.294Z,95220.90
2022-09-27T00:36:04.420Z,95221.32
2022-09-27T00:38:33.138Z,95224.11
2022-09-27T00:41:01.409Z,95219.85
2022-09-27T00:43:46.981Z,95213.02
2022-09-27T00:46:19.387Z,95208.28
2022-09-27T00:48:49.010Z,95204.21
2022-09-27T00:51:17.170Z,95193.13
2022-09-27T00:53:51.686Z,95196.35
2022-09-27T00:56:22.358Z,95194.45
2022-09-27T00:58:57.842Z,95199.23
2022-09-27T01:01:26.049Z,95203.48
2022-09-27T01:04:00.791Z,95189.63
2022-09-27T01:06:29.126Z,95180.58
2022-09-27T01:08:57.349Z,95178.41
2022-09-27T01:11:44.341Z,95175.05
2022-09-27T01:14:12.746Z,95164.16
2022-09-27T01:16:40.831Z,95161.59
2022-09-27T01:19:27.675Z,95159.75
2022-09-27T01:22:04.927Z,95161.67
2022-09-27T01:24:53.433Z,95158.77
2022-09-27T01:27:31.212Z,95149.96
2022-09-27T01:30:18.163Z,95154.20
2022-09-27T01:32:58.314Z,95159.23
2022-09-27T01:35:35.798Z,95158.15
2022-09-27T01:38:17.908Z,95156.65
2022-09-27T01:41:00.268Z,95148.16
2022-09-27T01:44:03.840Z,95131.77
2022-09-27T01:46:39.607Z,95121.37
2022-09-27T01:49:21.017Z,95126.02
2022-09-27T01:51:53.268Z,95129.06
2022-09-27T01:54:25.587Z,95123.16
2022-09-27T01:57:14.819Z,95120.92
2022-09-27T02:00:07.192Z,95116.08
2022-09-27T02:02:48.268Z,95110.52
2022-09-27T02:05:40.739Z,95102.79
2022-09-27T02:08:39.407Z,95099.64
2022-09-27T02:11:14.314Z,95087.34
2022-09-27T02:13:45.624Z,95082.95
2022-09-27T02:16:39.491Z,95076.04
2022-09-27T02:19:16.694Z,95073.92
2022-09-27T02:21:57.365Z,95075.96
2022-09-27T02:24:30.594Z,95081.64
2022-09-27T02:27:06.926Z,95088.78
2022-09-27T02:29:37.782Z,95087.86
2022-09-27T02:32:06.274Z,95086.81
2022-09-27T02:34:36.520Z,95084.49
2022-09-27T02:37:04.673Z,95087.82
2022-09-27T02:39:32.932Z,95081.29
2022-09-27T02:42:05.805Z,95090.08
2022-09-27T02:44:34.410Z,95093.83
2022-09-27T02:47:08.387Z,95092.69
2022-09-27T02:49:37.455Z,95091.30
2022-09-27T02:52:53.970Z,95086.79
2022-09-27T02:55:25.740Z,95084.95
2022-09-27T02:58:21.437Z,95088.06
2022-09-27T03:01:28.162Z,95095.85
2022-09-27T03:04:09.317Z,95092.73
2022-09-27T03:06:40.515Z,95091.95
2022-09-27T03:09:34.818Z,95088.98
2022-09-27T03:12:03.052Z,95078.71
2022-09-27T03:14:31.214Z,95074.41
2022-09-27T03:17:08.742Z,95076.82
2022-09-27T03:20:14.868Z,95075.16
2022-09-27T03:22:54.819Z,95081.35
2022-09-27T03:25:22.980Z,95088.23
2022-09-27T03:27:51.346Z,95085.77
2022-09-27T03:30:19.754Z,95089.48
2022-09-27T03:32:47.948Z,95083.02
2022-09-27T03:35:37.041Z,95087.66
2022-09-27T03:38:05.574Z,95091.58
2022-09-27T03:40:34.099Z,95089.73
2022-09-27T03:43:02.791Z,95090.92
2022-09-27T03:45:31.507Z,95085.21
2022-09-27T03:48:01.582Z,95087.80
2022-09-27T03:50:30.265Z,95091.05
2022-09-27T03:52:58.433Z,95090.34
2022-09-27T03:55:26.720Z,95084.90
2022-09-27T03:57:54.859Z,95080.71
2022-09-27T04:00:27.794Z,95079.66
2022-09-27T04:02:56.865Z,95079.04
2022-09-27T04:05:25.835Z,95073.62
2022-09-27T04:07:59.208Z,95062.83
2022-09-27T04:10:27.372Z,95064.73
2022-09-27T04:12:55.907Z,95064.57
2022-09-27T04:15:25.036Z,95061.31
2022-09-27T04:17:53.178Z,95059.05
2022-09-27T04:20:36.616Z,95057.77
2022-09-27T04:23:08.142Z,95059.33
2022-09-27T04:25:40.024Z,95058.83
2022-09-27T04:28:19.686Z,95059.75
2022-09-27T04:30:48.833Z,95062.88
2022-09-27T04:33:39.801Z,95063.27
2022-09-27T04:36:29.641Z,95068.98
2022-09-27T04:39:20.851Z,95074.69
2022-09-27T04:41:49.262Z,95075.03
2022-09-27T04:44:17.437Z,95076.40
2022-09-27T04:46:48.590Z,95074.67
2022-09-27T04:49:17.916Z,95072.80
2022-09-27T04:51:46.847Z,95073.98
2022-09-27T04:54:15.058Z,95077.92
2022-09-27T04:56:52.559Z,95083.81
2022-09-27T04:59:21.809Z,95081.44
2022-09-27T05:01:50.776Z,95079.02
2022-09-27T05:04:18.922Z,95076.70
2022-09-27T05:06:56.871Z,95082.95
2022-09-27T05:09:32.228Z,95085.23
2022-09-27T05:12:01.395Z,95086.77
2022-09-27T05:14:47.635Z,95086.83
2022-09-27T05:17:34.418Z,95086.58
2022-09-27T05:20:21.365Z,95087.59
2022-09-27T05:22:56.018Z,95088.31
2022-09-27T05:25:25.931Z,95082.89
2022-09-27T05:27:54.170Z,95082.73
2022-09-27T05:30:22.698Z,95080.98
2022-09-27T05:32:54.841Z,95078.55
2022-09-27T05:35:26.329Z,95076.39
2022-09-27T05:37:55.574Z,95079.54
2022-09-27T05:40:40.447Z,95080.94
2022-09-27T05:43:10.402Z,95080.98
2022-09-27T05:45:38.849Z,95082.96
2022-09-27T05:48:09.240Z,95079.59
2022-09-27T05:50:45.486Z,95083.21
2022-09-27T05:53:13.961Z,95086.86
2022-09-27T05:55:43.330Z,95083.11
2022-09-27T05:58:16.471Z,95088.13
2022-09-27T06:00:47.934Z,95084.14
2022-09-27T06:03:41.320Z,95079.05
2022-09-27T06:06:38.719Z,95083.13
2022-09-27T06:09:11.043Z,95082.06
2022-09-27T06:11:43.041Z,95082.41
2022-09-27T06:14:15.088Z,95087.92
2022-09-27T06:17:12.992Z,95089.39
2022-09-27T06:19:45.267Z,95096.67
2022-09-27T06:22:14.058Z,95100.27
2022-09-27T06:24:50.029Z,95099.88
2022-09-27T06:27:22.969Z,95103.27
2022-09-27T06:30:15.844Z,95099.42
2022-09-27T06:32:55.488Z,95102.98
2022-09-27T06:35:31.457Z,95104.05
2022-09-27T06:38:02.837Z,95111.64
2022-09-27T06:40:31.298Z,95115.45
2022-09-27T06:43:20.068Z,95115.91
2022-09-27T06:46:08.835Z,95115.14
2022-09-27T06:49:15.413Z,95111.50
2022-09-27T06:52:01.700Z,95115.85
2022-09-27T06:54:30.726Z,95115.27
2022-09-27T06:57:02.693Z,95115.35
2022-09-27T06:59:50.021Z,95121.00
2022-09-27T07:02:38.645Z,95119.83
2022-09-27T07:05:36.727Z,95123.61
2022-09-27T07:08:28.997Z,95123.64
2022-09-27T07:11:02.975Z,95128.79
2022-09-27T07:13:33.196Z,95127.58
2022-09-27T07:16:01.846Z,95131.74
2022-09-27T07:18:30.916Z,95128.48
2022-09-27T07:21:00.622Z,95136.21
2022-09-27T07:23:29.695Z,95130.73
2022-09-27T07:26:04.520Z,95129.54
2022-09-27T07:28:33.406Z,95126.35
2022-09-27T07:31:04.087Z,95120.59
2022-09-27T07:33:33.235Z,95118.88
2022-09-27T07:36:10.671Z,95116.30
2022-09-27T07:38:43.025Z,95114.27
2022-09-27T07:41:15.166Z,95111.06
2022-09-27T07:43:45.569Z,95106.73
2022-09-27T07:46:14.990Z,95101.13
2022-09-27T07:49:08.489Z,95104.94
2022-09-27T07:51:52.845Z,95104.64
2022-09-27T07:54:40.124Z,95108.05
2022-09-27T07:57:16.670Z,95109.27
2022-09-27T07:59:50.074Z,95103.38
2022-09-27T08:02:21.203Z,95106.45
2022-09-27T08:04:51.685Z,95106.09
2022-09-27T08:07:21.204Z,95102.14
2022-09-27T08:09:53.668Z,95097.96
2022-09-27T08:12:23.275Z,95099.84
2022-09-27T08:14:52.462Z,95099.58
2022-09-27T08:17:21.047Z,95096.74
2022-09-27T08:20:07.151Z,95097.11
2022-09-27T08:22:54.056Z,95088.25
2022-09-27T08:25:30.722Z,95083.96
2022-09-27T08:28:09.373Z,95081.56
2022-09-27T08:30:49.341Z,95077.80
2022-09-27T08:33:18.157Z,95076.71
2022-09-27T08:35:46.656Z,95077.55
2022-09-27T08:38:14.967Z,95080.61
2022-09-27T08:41:02.231Z,95082.45
2022-09-27T08:43:37.729Z,95084.39
2022-09-27T08:46:16.025Z,95082.50
2022-09-27T08:48:45.079Z,95084.70
2022-09-27T08:51:14.696Z,95090.08
2022-09-27T08:53:50.093Z,95093.37
2022-09-27T08:56:22.888Z,95088.16
2022-09-27T08:58:56.481Z,95094.11
2022-09-27T09:01:30.580Z,95092.32
2022-09-27T09:04:04.582Z,95082.35
2022-09-27T09:06:49.983Z,95081.89
2022-09-27T09:09:24.278Z,95080.59
2022-09-27T09:12:32.982Z,95080.28
2022-09-27T09:15:14.185Z,95074.90
2022-09-27T09:17:51.953Z,95073.14
2022-09-27T09:20:50.232Z,95062.34
2022-09-27T09:23:21.714Z,95056.21
2022-09-27T09:26:08.944Z,95052.41
2022-09-27T09:28:37.127Z,95046.65
2022-09-27T09:31:13.807Z,95041.89
2022-09-27T09:33:46.999Z,95045.95
2022-09-27T09:36:30.199Z,95048.11
2022-09-27T09:39:12.959Z,95041.88
2022-09-27T09:42:00.377Z,95032.52
2022-09-27T09:44:40.021Z,95023.05
2022-09-27T09:47:15.820Z,95025.45
2022-09-27T09:49:47.078Z,95027.70
2022-09-27T09:52:21.319Z,95023.29
2022-09-27T09:55:19.402Z,95018.17
2022-09-27T09:57:57.403Z,95013.11
2022-09-27T10:00:28.336Z,95006.09
2022-09-27T10:02:59.196Z,95001.66
2022-09-27T10:05:28.702Z,94998.63
2022-09-27T10:08:05.012Z,94997.39
2022-09-27T10:10:34.316Z,94986.95
2022-09-27T10:13:36.188Z,94989.80
2022-09-27T10:16:08.744Z,94988.04
2022-09-27T10:18:39.176Z,94984.05
2022-09-27T10:21:28.561Z,94972.45
2022-09-27T10:24:06.855Z,94979.20
2022-09-27T10:27:06.213Z,94972.73
2022-09-27T10:29:39.101Z,94975.33
2022-09-27T10:32:37.562Z,94960.75
2022-09-27T10:35:33.895Z,94960.91
2022-09-27T10:38:21.996Z,94959.86
2022-09-27T10:40:52.222Z,94968.81
2022-09-27T10:43:29.590Z,94963.04
2022-09-27T10:46:11.465Z,94969.13
2022-09-27T10:48:42.547Z,94972.55
2022-09-27T10:51:20.543Z,94971.74
2022-09-27T10:53:52.292Z,94968.71
2022-09-27T10:56:35.506Z,94967.23
2022-09-27T10:59:05.377Z,94962.99
2022-09-27T11:01:42.762Z,94959.98
2022-09-27T11:04:31.962Z,94959.38
2022-09-27T11:07:08.039Z,94961.93
2022-09-27T11:09:45.882Z,94964.92
2022-09-27T11:12:15.233Z,94964.42
2022-09-27T11:18:27.643Z,94951.96
2022-09-27T11:21:16.361Z,94950.89
2022-09-27T11:24:04.291Z,94948.66
2022-09-27T11:26:41.743Z,94948.46
2022-09-27T11:29:33.215Z,94948.98
2022-09-27T11:32:29.118Z,94948.20
2022-09-27T11:34:57.413Z,94943.38
2022-09-27T11:37:28.950Z,94939.66
2022-09-27T11:39:57.157Z,94942.36
2022-09-27T11:42:28.504Z,94944.24
2022-09-27T11:45:45.498Z,94941.47
2022-09-27T11:48:27.521Z,94944.02
2022-09-27T11:51:08.280Z,94940.50
2022-09-27T11:54:05.892Z,94939.55
2022-09-27T11:56:34.455Z,94941.48
2022-09-27T11:59:28.722Z,94942.97
2022-09-27T12:02:21.270Z,94934.77
2022-09-27T12:04:52.689Z,94936.63
2022-09-27T12:07:22.577Z,94938.47
2022-09-27T12:09:53.558Z,94937.23
2022-09-27T12:12:23.971Z,94937.59
2022-09-27T12:14:55.027Z,94932.91
2022-09-27T12:17:26.046Z,94922.17
2022-09-27T12:19:58.532Z,94919.57
2022-09-27T12:22:58.981Z,94919.46
2022-09-27T12:25:57.300Z,94925.90
2022-09-27T12:28:33.485Z,94931.71
2022-09-27T12:31:28.094Z,94930.28
2022-09-27T12:34:01.560Z,94925.83
2022-09-27T12:36:38.802Z,94921.71
2022-09-27T12:39:16.341Z,94917.20
2022-09-27T12:41:49.830Z,94912.56
2022-09-27T12:44:32.322Z,94913.77
2022-09-27T12:47:23.507Z,94911.02
2022-09-27T12:49:52.165Z,94904.90
2022-09-27T12:52:25.691Z,94905.48
2022-09-27T12:55:00.497Z,94908.48
2022-09-27T12:57:37.786Z,94901.45
2022-09-27T13:00:12.923Z,94897.59
2022-09-27T13:02:57.435Z,94886.95
2022-09-27T13:05:50.710Z,94875.48
2022-09-27T13:08:18.958Z,94871.04
2022-09-27T13:10:59.384Z,94866.70
2022-09-27T13:13:36.249Z,94861.20
2022-09-27T13:16:06.643Z,94860.20
2022-09-27T13:18:53.248Z,94850.17
2022-09-27T13:21:40.522Z,94849.80
2022-09-27T13:24:38.154Z,94854.25
2022-09-27T13:27:25.691Z,94857.27
2022-09-27T13:30:09.661Z,94864.50
2022-09-27T13:32:39.172Z,94855.54
2022-09-27T13:35:19.161Z,94850.88
2022-09-27T13:38:01.622Z,94845.56
2022-09-27T13:40:50.171Z,94835.19
2022-09-27T13:43:41.747Z,94835.86
2022-09-27T13:46:21.107Z,94825.59
2022-09-27T13:48:50.820Z,94821.29
2022-09-27T13:51:20.038Z,94821.58
2022-09-27T13:53:57.445Z,94820.36
2022-09-27T13:56:46.712Z,94817.55
2022-09-27T13:59:34.566Z,94812.77
2022-09-27T14:02:24.190Z,94810.46
2022-09-27T14:04:53.585Z,94806.46
2022-09-27T14:07:26.640Z,94803.46
2022-09-27T14:10:01.208Z,94801.88
2022-09-27T14:12:33.962Z,94797.36
2022-09-27T14:15:04.410Z,94788.98
2022-09-27T14:17:33.308Z,94789.33
2022-09-27T14:20:03.361Z,94795.55
2022-09-27T14:22:32.029Z,94793.50
2022-09-27T14:25:16.790Z,94791.27
2022-09-27T14:27:46.253Z,94789.90
2022-09-27T14:30:24.349Z,94797.80
2022-09-27T14:33:01.824Z,94801.98
2022-09-27T14:36:08.235Z,94806.95
2022-09-27T14:38:38.799Z,94805.09
2022-09-27T14:41:16.204Z,94812.28
2022-09-27T14:43:46.326Z,94813.86
2022-09-27T14:46:28.017Z,94815.16
2022-09-27T14:48:56.529Z,94811.42
2022-09-27T14:51:29.616Z,94813.94
2022-09-27T14:54:00.933Z,94809.23
2022-09-27T14:56:40.009Z,94808.43
2022-09-27T14:59:14.496Z,94805.26
2022-09-27T15:01:52.464Z,94801.65
2022-09-27T15:04:22.581Z,94801.98
2022-09-27T15:06:51.216Z,94795.85
2022-09-27T15:09:20.848Z,94800.88
2022-09-27T15:11:53.002Z,94801.43
2022-09-27T15:14:22.097Z,94799.70
2022-09-27T15:16:51.867Z,94801.41
2022-09-27T15:19:28.086Z,94798.56
2022-09-27T15:21:57.482Z,94802.08
2022-09-27T15:24:39.174Z,94805.85
2022-09-27T15:27:24.268Z,94800.88
2022-09-27T15:29:54.107Z,94794.15
2022-09-27T15:32:24.261Z,94789.14
2022-09-27T15:34:53.359Z,94789.85
2022-09-27T15:37:27.310Z,94786.73
2022-09-27T15:39:55.538Z,94787.05
2022-09-27T15:42:23.996Z,94789.91
2022-09-27T15:44:53.192Z,94788.59
2022-09-27T15:47:40.329Z,94789.41
2022-09-27T15:50:17.396Z,94783.55
2022-09-27T15:52:52.741Z,94791.11
2022-09-27T15:55:24.629Z,94794.78
2022-09-27T15:57:59.509Z,94794.31
2022-09-27T16:00:28.152Z,94803.62
2022-09-27T16:02:56.341Z,94800.44
2022-09-27T16:05:24.541Z,94800.34
2022-09-27T16:07:53.055Z,94796.77
2022-09-27T16:10:23.734Z,94797.15
2022-09-27T16:12:52.405Z,94802.66
2022-09-27T16:15:20.651Z,94799.27
2022-09-27T16:17:48.845Z,94804.52
2022-09-27T16:20:23.320Z,94793.38
2022-09-27T16:22:52.178Z,94804.48
2022-09-27T16:25:20.756Z,94804.41
2022-09-27T16:27:49.175Z,94803.99
2022-09-27T16:30:17.616Z,94808.67
2022-09-27T16:32:47.091Z,94809.35
2022-09-27T16:35:16.156Z,94810.40
2022-09-27T16:37:44.355Z,94812.38
2022-09-27T16:40:13.652Z,94804.74
2022-09-27T16:42:42.490Z,94807.20
2022-09-27T16:45:14.539Z,94803.23
2022-09-27T16:47:45.073Z,94805.20
2022-09-27T16:50:32.086Z,94806.88
2022-09-27T16:53:00.688Z,94806.04
2022-09-27T16:55:29.520Z,94799.86
2022-09-27T16:57:58.821Z,94799.19
2022-09-27T17:00:28.499Z,94796.65
2022-09-27T17:02:56.777Z,94797.45
2022-09-27T17:05:25.387Z,94796.98
2022-09-27T17:07:53.725Z,94794.41
2022-09-27T17:10:22.639Z,94792.84
2022-09-27T17:12:51.225Z,94795.85
2022-09-27T17:15:19.347Z,94794.04
2022-09-27T17:17:50.579Z,94797.70
2022-09-27T17:20:18.979Z,94804.60
2022-09-27T17:22:47.950Z,94806.97
2022-09-27T17:25:16.092Z,94807.33
2022-09-27T17:27:44.403Z,94808.89
2022-09-27T17:30:12.595Z,94800.25
2022-09-27T17:32:40.837Z,94798.98
2022-09-27T17:35:09.519Z,94801.64
2022-09-27T17:37:37.713Z,94800.36
2022-09-27T17:40:06.164Z,94803.80
2022-09-27T17:42:35.603Z,94804.59
2022-09-27T17:45:03.973Z,94802.02
2022-09-27T17:47:50.678Z,94804.42
2022-09-27T17:50:24.726Z,94807.45
2022-09-27T17:52:53.966Z,94806.84
2022-09-27T17:55:22.647Z,94808.65
2022-09-27T17:57:51.257Z,94804.36
2022-09-27T18:00:20.594Z,94803.63
2022-09-27T18:02:48.904Z,94800.30
2022-09-27T18:05:21.229Z,94801.50
2022-09-27T18:07:49.599Z,94804.28
2022-09-27T18:10:18.037Z,94797.05
2022-09-27T18:12:46.264Z,94804.20
2022-09-27T18:15:17.126Z,94803.84
2022-09-27T18:17:45.981Z,94805.39
2022-09-27T18:20:14.098Z,94804.04
2022-09-27T18:22:42.283Z,94804.92
2022-09-27T18:25:12.097Z,94812.33
2022-09-27T18:27:41.061Z,94811.89
2022-09-27T18:30:09.688Z,94813.27
2022-09-27T18:32:37.852Z,94808.58
2022-09-27T18:35:07.119Z,94806.67
2022-09-27T18:37:35.409Z,94804.70
2022-09-27T18:40:03.933Z,94802.44
2022-09-27T18:42:32.299Z,94806.93
2022-09-27T18:45:00.456Z,94805.61
2022-09-27T18:47:28.703Z,94805.27
2022-09-27T18:49:56.837Z,94799.70
2022-09-27T18:52:24.984Z,94797.57
2022-09-27T18:54:53.138Z,94797.63
2022-09-27T18:57:21.757Z,94788.64
2022-09-27T18:59:49.897Z,94788.25
2022-09-27T19:02:18.040Z,94782.76
2022-09-27T19:04:46.233Z,94777.02
2022-09-27T19:07:14.377Z,94771.73
2022-09-27T19:09:42.537Z,94769.96
2022-09-27T19:12:10.708Z,94762.38
2022-09-27T19:14:38.834Z,94764.76
2022-09-27T19:17:07.376Z,94765.27
2022-09-27T19:19:35.632Z,94765.52
2022-09-27T19:22:03.889Z,94770.96
2022-09-27T19:24:32.088Z,94775.14
2022-09-27T19:27:00.221Z,94782.36
2022-09-27T19:29:28.443Z,94792.05
2022-09-27T19:31:56.588Z,94797.69
2022-09-27T19:34:24.706Z,94804.77
2022-09-27T19:36:53.173Z,94808.25
2022-09-27T19:39:21.294Z,94819.23
2022-09-27T19:41:49.487Z,94823.25
2022-09-27T19:44:17.720Z,94827.08
2022-09-27T19:46:46.061Z,94825.48
2022-09-27T19:49:14.584Z,94829.71
2022-09-27T19:51:42.780Z,94829.81
2022-09-27T19:54:11.557Z,94828.52
2022-09-27T19:56:39.707Z,94835.74
2022-09-27T19:59:07.807Z,94833.16
2022-09-27T20:01:36.111Z,94832.67
2022-09-27T20:04:04.496Z,94833.41
2022-09-27T20:06:33.261Z,94837.92
2022-09-27T20:09:03.260Z,94836.36
2022-09-27T20:11:32.797Z,94832.84
2022-09-27T20:14:01.060Z,94832.70
2022-09-27T20:16:29.468Z,94836.08
2022-09-27T20:18:58.567Z,94843.46
2022-09-27T20:21:27.827Z,94848.82
2022-09-27T20:23:57.152Z,94855.30
2022-09-27T20:26:26.836Z,94855.64
2022-09-27T20:28:57.190Z,94857.20
2022-09-27T20:31:30.047Z,94859.91
2022-09-27T20:33:58.284Z,94859.09
2022-09-27T20:36:28.587Z,94862.16
2022-09-27T20:39:04.693Z,94862.03
2022-09-27T20:41:34.110Z,94862.77
2022-09-27T20:44:06.112Z,94862.54
2022-09-27T20:46:35.414Z,94866.48
2022-09-27T20:49:05.000Z,94873.89
2022-09-27T20:51:34.284Z,94873.34
2022-09-27T20:54:03.230Z,94877.47
2022-09-27T20:56:32.844Z,94877.50
2022-09-27T20:59:02.112Z,94877.69
2022-09-27T21:01:30.946Z,94883.55
2022-09-27T21:04:00.450Z,94886.77
2022-09-27T21:06:30.289Z,94883.35
2022-09-27T21:08:58.976Z,94875.20
2022-09-27T21:11:27.462Z,94872.55
2022-09-27T21:13:55.779Z,94871.91
2022-09-27T21:16:26.512Z,94873.40
2022-09-27T21:18:55.898Z,94871.46
2022-09-27T21:21:24.771Z,94873.52
2022-09-27T21:23:54.166Z,94874.75
2022-09-27T21:26:22.717Z,94869.43
2022-09-27T21:28:52.214Z,94866.56
2022-09-27T21:31:22.957Z,94870.86
2022-09-27T21:33:55.098Z,94874.91
2022-09-27T21:36:24.188Z,94879.05
2022-09-27T21:38:52.502Z,94883.73
2022-09-27T21:41:20.972Z,94879.31
2022-09-27T21:43:49.256Z,94878.11
2022-09-27T21:46:20.650Z,94884.20
2022-09-27T21:48:49.924Z,94883.72
2022-09-27T21:51:22.351Z,94877.20
2022-09-27T21:53:51.731Z,94870.60
2022-09-27T21:56:20.511Z,94866.86
2022-09-27T21:58:48.872Z,94866.39
2022-09-27T22:01:18.570Z,94873.89
2022-09-27T22:03:47.043Z,94873.11
2022-09-27T22:06:19.671Z,94871.67
2022-09-27T22:08:48.650Z,94865.90
2022-09-27T22:11:18.677Z,94864.36
2022-09-27T22:13:46.943Z,94865.77
2022-09-27T22:16:16.680Z,94867.60
2022-09-27T22:18:48.965Z,94866.84
2022-09-27T22:21:18.654Z,94870.08
2022-09-27T22:23:46.809Z,94869.77
2022-09-27T22:26:18.712Z,94875.34
2022-09-27T22:28:47.031Z,94875.95
2022-09-27T22:31:16.191Z,94877.86
2022-09-27T22:33:54.685Z,94878.54
2022-09-27T22:36:23.559Z,94883.27
2022-09-27T22:38:52.141Z,94885.80
2022-09-27T22:41:20.841Z,94886.30
2022-09-27T22:43:49.281Z,94881.60
2022-09-27T22:46:17.548Z,94880.20
2022-09-27T22:48:45.865Z,94879.33
2022-09-27T22:51:14.458Z,94882.48
2022-09-27T22:53:43.234Z,94880.80
2022-09-27T22:56:14.387Z,94883.16
2022-09-27T22:58:44.187Z,94888.76
2022-09-27T23:01:20.743Z,94888.66
2022-09-27T23:03:50.217Z,94891.30
2022-09-27T23:06:19.427Z,94893.02
2022-09-27T23:08:47.904Z,94896.70
2022-09-27T23:11:19.933Z,94890.89
2022-09-27T23:13:48.971Z,94886.05
2022-09-27T23:16:19.553Z,94888.41
2022-09-27T23:18:47.990Z,94884.98
2022-09-27T23:21:17.159Z,94886.20
2022-09-27T23:23:46.087Z,94885.80
2022-09-27T23:26:15.609Z,94882.69
2022-09-27T23:28:44.198Z,94888.58
2022-09-27T23:31:13.974Z,94894.41
2022-09-27T23:33:43.481Z,94901.93
2022-09-27T23:36:15.327Z,94903.27
2022-09-27T23:38:45.874Z,94899.06
2022-09-27T23:41:15.534Z,94898.08
2022-09-27T23:43:44.605Z,94898.64
2022-09-27T23:46:13.345Z,94908.13
2022-09-27T23:48:41.698Z,94917.39
2022-09-27T23:51:10.699Z,94914.88
2022-09-27T23:53:39.561Z,94905.90
2022-09-27T23:56:12.139Z,94900.61
2022-09-27T23:58:41.629Z,94895.52
